Portada
METAR-TAF:

METAR-TAF

Aeropuertos :

Aeropuerto Internacional de Maiquetía Simón Bolívar

Caracas, Venezuela

latitud: 10-36N, longitud: 066-59W, altitud: 43 m

Observación

El informe se hizo hace 50 minutos, a las 14:00 UTC
Viento 4 kt del este
Temperatura 28°C
Humedad 70%
Presión 1012 hPa
Visibilidad 10 km o más
Nubes dispersas a una altura de 1600 ft
Nubes dispersas a una altura de 10000 ft

METAR: SVMI 231400Z 09004KT 9999 SCT016 SCT100 28/22 Q1012

Hora: 10:50 (14:50 UTC)

Pronóstico

El informe se hizo hace 4 horas y 50 minutos, a las 10:00 UTC
Pronóstico válido del 23 a las 12 UTC al 24 a las 12 UTC
Viento 8 kt del este
Visibilidad 10 km o más
Nubes dispersas a una altura de 1600 ft
Evolucionando progresivamente
del 23 a las 11 UTC al 23 a las 15 UTC
Viento 7 kt del noreste
Cielo nuboso a una altura de 1600 ft

TAF: SVMI 231000Z 2312/2412 09008KT 9999 SCT016 TX33/18Z TN24/08Z BECMG 2311/2315 05007KT BKN016

Observaciones y pronósticos meteorológicos de más de 4000 aeropuertos (mensajes METAR y TAF).

Los puntos amarillos y rojos representan las estaciones disponibles.

Ponga el ratón en el punto deseado para ver el nombre de la estación.

Haga clic para ver las observaciones y los pronósticos meteorológicos.

Para cambiar el mapa : haga clic en los botones verdes con una cruz de color negro para hacer un zoom, en el botón verde con un guión para alejar o en las flechas verdes para mapas adyacentes.


METAR-TAF: